sensor_id;sensor_type;location;lat;lon;timestamp;P1;durP1;ratioP1;P2;durP2;ratioP2
42430;SDS011;71905;47.466;19.024;2023-12-20T00:00:11;61.83;;;27.80;;
42430;SDS011;71905;47.466;19.024;2023-12-20T00:02:39;56.08;;;26.98;;
42430;SDS011;71905;47.466;19.024;2023-12-20T00:05:11;58.45;;;26.75;;
42430;SDS011;71905;47.466;19.024;2023-12-20T00:07:42;62.63;;;29.30;;
42430;SDS011;71905;47.466;19.024;2023-12-20T00:10:15;59.83;;;27.00;;
42430;SDS011;71905;47.466;19.024;2023-12-20T00:12:44;59.00;;;27.52;;
42430;SDS011;71905;47.466;19.024;2023-12-20T00:15:12;58.42;;;27.35;;
42430;SDS011;71905;47.466;19.024;2023-12-20T00:17:41;60.17;;;28.50;;
42430;SDS011;71905;47.466;19.024;2023-12-20T00:20:11;64.57;;;28.42;;
42430;SDS011;71905;47.466;19.024;2023-12-20T00:22:40;65.88;;;29.13;;
42430;SDS011;71905;47.466;19.024;2023-12-20T00:25:10;67.45;;;28.85;;
42430;SDS011;71905;47.466;19.024;2023-12-20T00:27:38;67.85;;;29.98;;
42430;SDS011;71905;47.466;19.024;2023-12-20T00:30:09;65.60;;;29.90;;
42430;SDS011;71905;47.466;19.024;2023-12-20T00:32:38;66.95;;;30.17;;
42430;SDS011;71905;47.466;19.024;2023-12-20T00:35:08;69.15;;;29.77;;
42430;SDS011;71905;47.466;19.024;2023-12-20T00:37:36;64.80;;;27.60;;
42430;SDS011;71905;47.466;19.024;2023-12-20T00:40:04;69.43;;;29.45;;
42430;SDS011;71905;47.466;19.024;2023-12-20T00:42:35;66.90;;;29.77;;
42430;SDS011;71905;47.466;19.024;2023-12-20T00:45:04;68.93;;;28.85;;
42430;SDS011;71905;47.466;19.024;2023-12-20T00:47:34;65.53;;;28.58;;
42430;SDS011;71905;47.466;19.024;2023-12-20T00:50:02;66.07;;;28.90;;
42430;SDS011;71905;47.466;19.024;2023-12-20T00:52:31;75.85;;;30.83;;
42430;SDS011;71905;47.466;19.024;2023-12-20T00:54:59;67.07;;;28.30;;
42430;SDS011;71905;47.466;19.024;2023-12-20T00:57:27;63.97;;;26.63;;
42430;SDS011;71905;47.466;19.024;2023-12-20T00:59:55;54.35;;;24.75;;
42430;SDS011;71905;47.466;19.024;2023-12-20T01:02:23;81.68;;;31.55;;
42430;SDS011;71905;47.466;19.024;2023-12-20T01:04:53;67.32;;;29.30;;
42430;SDS011;71905;47.466;19.024;2023-12-20T01:07:20;66.80;;;29.48;;
42430;SDS011;71905;47.466;19.024;2023-12-20T01:09:49;74.15;;;31.00;;
42430;SDS011;71905;47.466;19.024;2023-12-20T01:12:17;72.28;;;30.83;;
42430;SDS011;71905;47.466;19.024;2023-12-20T01:14:44;77.82;;;32.03;;
42430;SDS011;71905;47.466;19.024;2023-12-20T01:17:12;71.78;;;30.45;;
42430;SDS011;71905;47.466;19.024;2023-12-20T01:19:40;78.25;;;32.10;;
42430;SDS011;71905;47.466;19.024;2023-12-20T01:22:10;69.30;;;30.05;;
42430;SDS011;71905;47.466;19.024;2023-12-20T01:24:38;73.20;;;30.55;;
42430;SDS011;71905;47.466;19.024;2023-12-20T01:27:06;70.72;;;29.55;;
42430;SDS011;71905;47.466;19.024;2023-12-20T01:29:36;71.95;;;29.38;;
42430;SDS011;71905;47.466;19.024;2023-12-20T01:32:06;68.95;;;29.80;;
42430;SDS011;71905;47.466;19.024;2023-12-20T01:34:34;69.05;;;29.35;;
42430;SDS011;71905;47.466;19.024;2023-12-20T01:37:04;65.50;;;29.02;;
42430;SDS011;71905;47.466;19.024;2023-12-20T01:39:35;77.13;;;29.55;;
42430;SDS011;71905;47.466;19.024;2023-12-20T01:42:04;62.78;;;28.10;;
42430;SDS011;71905;47.466;19.024;2023-12-20T01:44:37;61.25;;;26.20;;
42430;SDS011;71905;47.466;19.024;2023-12-20T01:47:08;58.70;;;26.67;;
42430;SDS011;71905;47.466;19.024;2023-12-20T01:49:38;67.10;;;28.10;;
42430;SDS011;71905;47.466;19.024;2023-12-20T01:52:07;65.18;;;28.92;;
42430;SDS011;71905;47.466;19.024;2023-12-20T01:54:40;66.07;;;28.63;;
42430;SDS011;71905;47.466;19.024;2023-12-20T01:57:09;63.65;;;28.90;;
42430;SDS011;71905;47.466;19.024;2023-12-20T01:59:39;65.50;;;28.60;;
42430;SDS011;71905;47.466;19.024;2023-12-20T02:02:11;68.70;;;29.60;;
42430;SDS011;71905;47.466;19.024;2023-12-20T02:04:39;65.45;;;27.63;;
42430;SDS011;71905;47.466;19.024;2023-12-20T02:07:09;63.58;;;28.63;;
42430;SDS011;71905;47.466;19.024;2023-12-20T02:09:40;66.93;;;28.90;;
42430;SDS011;71905;47.466;19.024;2023-12-20T02:12:10;66.72;;;28.13;;
42430;SDS011;71905;47.466;19.024;2023-12-20T02:14:44;59.90;;;27.10;;
42430;SDS011;71905;47.466;19.024;2023-12-20T02:17:12;62.42;;;26.63;;
42430;SDS011;71905;47.466;19.024;2023-12-20T02:19:40;54.63;;;24.98;;
42430;SDS011;71905;47.466;19.024;2023-12-20T02:22:10;57.60;;;26.10;;
42430;SDS011;71905;47.466;19.024;2023-12-20T02:24:38;56.88;;;26.00;;
42430;SDS011;71905;47.466;19.024;2023-12-20T02:27:07;60.80;;;26.65;;
42430;SDS011;71905;47.466;19.024;2023-12-20T02:29:36;52.20;;;23.02;;
42430;SDS011;71905;47.466;19.024;2023-12-20T02:32:04;53.80;;;24.95;;
42430;SDS011;71905;47.466;19.024;2023-12-20T02:34:32;64.07;;;27.83;;
42430;SDS011;71905;47.466;19.024;2023-12-20T02:37:00;56.53;;;26.58;;
42430;SDS011;71905;47.466;19.024;2023-12-20T02:39:30;57.47;;;25.65;;
42430;SDS011;71905;47.466;19.024;2023-12-20T02:41:58;61.78;;;27.75;;
42430;SDS011;71905;47.466;19.024;2023-12-20T02:44:26;56.00;;;25.25;;
42430;SDS011;71905;47.466;19.024;2023-12-20T02:46:54;59.50;;;27.08;;
42430;SDS011;71905;47.466;19.024;2023-12-20T02:49:22;63.92;;;27.25;;
42430;SDS011;71905;47.466;19.024;2023-12-20T02:51:50;63.20;;;27.60;;
42430;SDS011;71905;47.466;19.024;2023-12-20T02:54:18;56.53;;;26.45;;
42430;SDS011;71905;47.466;19.024;2023-12-20T02:56:48;60.42;;;26.67;;
42430;SDS011;71905;47.466;19.024;2023-12-20T02:59:16;64.05;;;28.80;;
42430;SDS011;71905;47.466;19.024;2023-12-20T03:01:44;66.32;;;29.75;;
42430;SDS011;71905;47.466;19.024;2023-12-20T03:04:13;66.70;;;29.77;;
42430;SDS011;71905;47.466;19.024;2023-12-20T03:06:41;56.17;;;26.55;;
42430;SDS011;71905;47.466;19.024;2023-12-20T03:09:09;70.78;;;31.05;;
42430;SDS011;71905;47.466;19.024;2023-12-20T03:11:37;66.30;;;30.83;;
42430;SDS011;71905;47.466;19.024;2023-12-20T03:14:07;65.75;;;28.48;;
42430;SDS011;71905;47.466;19.024;2023-12-20T03:16:35;58.03;;;28.10;;
42430;SDS011;71905;47.466;19.024;2023-12-20T03:19:03;65.90;;;28.88;;
42430;SDS011;71905;47.466;19.024;2023-12-20T03:21:31;68.88;;;31.35;;
42430;SDS011;71905;47.466;19.024;2023-12-20T03:23:59;62.90;;;27.40;;
42430;SDS011;71905;47.466;19.024;2023-12-20T03:26:27;74.43;;;30.77;;
42430;SDS011;71905;47.466;19.024;2023-12-20T03:28:55;71.18;;;31.17;;
42430;SDS011;71905;47.466;19.024;2023-12-20T03:31:24;58.75;;;27.73;;
42430;SDS011;71905;47.466;19.024;2023-12-20T03:33:52;66.95;;;31.35;;
42430;SDS011;71905;47.466;19.024;2023-12-20T03:36:20;66.30;;;28.48;;
42430;SDS011;71905;47.466;19.024;2023-12-20T03:38:49;65.00;;;29.30;;
42430;SDS011;71905;47.466;19.024;2023-12-20T03:41:17;63.42;;;28.52;;
42430;SDS011;71905;47.466;19.024;2023-12-20T03:43:45;64.43;;;29.58;;
42430;SDS011;71905;47.466;19.024;2023-12-20T03:46:13;64.15;;;26.98;;
42430;SDS011;71905;47.466;19.024;2023-12-20T03:48:42;68.07;;;28.33;;
42430;SDS011;71905;47.466;19.024;2023-12-20T03:51:10;65.93;;;28.08;;
42430;SDS011;71905;47.466;19.024;2023-12-20T03:53:38;60.80;;;28.08;;
42430;SDS011;71905;47.466;19.024;2023-12-20T03:56:07;61.42;;;27.58;;
42430;SDS011;71905;47.466;19.024;2023-12-20T03:58:35;66.32;;;29.67;;
42430;SDS011;71905;47.466;19.024;2023-12-20T04:01:03;63.47;;;28.20;;
42430;SDS011;71905;47.466;19.024;2023-12-20T04:03:31;61.42;;;28.05;;
42430;SDS011;71905;47.466;19.024;2023-12-20T04:06:01;70.88;;;28.77;;
42430;SDS011;71905;47.466;19.024;2023-12-20T04:08:30;62.15;;;27.40;;
42430;SDS011;71905;47.466;19.024;2023-12-20T04:10:58;63.15;;;28.17;;
42430;SDS011;71905;47.466;19.024;2023-12-20T04:13:26;61.47;;;26.20;;
42430;SDS011;71905;47.466;19.024;2023-12-20T04:15:54;62.28;;;27.65;;
42430;SDS011;71905;47.466;19.024;2023-12-20T04:18:24;68.65;;;28.13;;
42430;SDS011;71905;47.466;19.024;2023-12-20T04:20:52;64.28;;;28.73;;
42430;SDS011;71905;47.466;19.024;2023-12-20T04:23:22;65.40;;;28.67;;
42430;SDS011;71905;47.466;19.024;2023-12-20T04:25:49;71.53;;;29.60;;
42430;SDS011;71905;47.466;19.024;2023-12-20T04:28:17;66.40;;;29.50;;
42430;SDS011;71905;47.466;19.024;2023-12-20T04:30:45;66.00;;;28.55;;
42430;SDS011;71905;47.466;19.024;2023-12-20T04:33:14;63.40;;;28.13;;
42430;SDS011;71905;47.466;19.024;2023-12-20T04:35:42;64.15;;;28.08;;
42430;SDS011;71905;47.466;19.024;2023-12-20T04:38:17;59.75;;;27.05;;
42430;SDS011;71905;47.466;19.024;2023-12-20T04:40:47;56.88;;;26.25;;
42430;SDS011;71905;47.466;19.024;2023-12-20T04:43:15;55.22;;;25.23;;
42430;SDS011;71905;47.466;19.024;2023-12-20T04:45:43;63.88;;;28.45;;
42430;SDS011;71905;47.466;19.024;2023-12-20T04:48:11;65.22;;;27.67;;
42430;SDS011;71905;47.466;19.024;2023-12-20T04:50:40;58.80;;;26.40;;
42430;SDS011;71905;47.466;19.024;2023-12-20T04:53:08;59.33;;;26.40;;
42430;SDS011;71905;47.466;19.024;2023-12-20T04:55:36;58.65;;;26.63;;
42430;SDS011;71905;47.466;19.024;2023-12-20T04:58:07;60.08;;;27.08;;
42430;SDS011;71905;47.466;19.024;2023-12-20T05:00:35;53.15;;;25.15;;
42430;SDS011;71905;47.466;19.024;2023-12-20T05:03:03;60.08;;;25.85;;
42430;SDS011;71905;47.466;19.024;2023-12-20T05:05:31;57.22;;;27.27;;
42430;SDS011;71905;47.466;19.024;2023-12-20T05:07:59;63.33;;;27.63;;
42430;SDS011;71905;47.466;19.024;2023-12-20T05:10:27;62.58;;;28.88;;
42430;SDS011;71905;47.466;19.024;2023-12-20T05:12:55;63.05;;;29.58;;
42430;SDS011;71905;47.466;19.024;2023-12-20T05:15:25;62.45;;;27.15;;
42430;SDS011;71905;47.466;19.024;2023-12-20T05:17:53;62.65;;;29.00;;
42430;SDS011;71905;47.466;19.024;2023-12-20T05:20:21;62.08;;;28.33;;
42430;SDS011;71905;47.466;19.024;2023-12-20T05:22:49;60.13;;;27.92;;
42430;SDS011;71905;47.466;19.024;2023-12-20T05:25:18;60.05;;;27.75;;
42430;SDS011;71905;47.466;19.024;2023-12-20T05:27:46;59.90;;;27.92;;
42430;SDS011;71905;47.466;19.024;2023-12-20T05:30:14;63.67;;;28.10;;
42430;SDS011;71905;47.466;19.024;2023-12-20T05:32:44;64.47;;;29.33;;
42430;SDS011;71905;47.466;19.024;2023-12-20T05:35:12;61.85;;;27.05;;
42430;SDS011;71905;47.466;19.024;2023-12-20T05:37:40;57.13;;;26.98;;
42430;SDS011;71905;47.466;19.024;2023-12-20T05:40:09;54.42;;;27.30;;
42430;SDS011;71905;47.466;19.024;2023-12-20T05:42:38;63.92;;;29.13;;
42430;SDS011;71905;47.466;19.024;2023-12-20T05:45:08;59.72;;;27.77;;
42430;SDS011;71905;47.466;19.024;2023-12-20T05:47:37;63.35;;;28.98;;
42430;SDS011;71905;47.466;19.024;2023-12-20T05:50:10;53.90;;;25.58;;
42430;SDS011;71905;47.466;19.024;2023-12-20T05:52:49;66.00;;;28.95;;
42430;SDS011;71905;47.466;19.024;2023-12-20T05:55:20;70.97;;;29.30;;
42430;SDS011;71905;47.466;19.024;2023-12-20T05:57:48;62.80;;;28.35;;
42430;SDS011;71905;47.466;19.024;2023-12-20T06:00:17;62.47;;;27.92;;
42430;SDS011;71905;47.466;19.024;2023-12-20T06:02:45;64.97;;;29.38;;
42430;SDS011;71905;47.466;19.024;2023-12-20T06:05:14;71.47;;;29.85;;
42430;SDS011;71905;47.466;19.024;2023-12-20T06:07:43;72.47;;;30.02;;
42430;SDS011;71905;47.466;19.024;2023-12-20T06:10:12;132.75;;;30.60;;
42430;SDS011;71905;47.466;19.024;2023-12-20T06:12:40;81.50;;;29.30;;
42430;SDS011;71905;47.466;19.024;2023-12-20T06:15:08;84.95;;;30.52;;
42430;SDS011;71905;47.466;19.024;2023-12-20T06:17:37;70.00;;;28.70;;
42430;SDS011;71905;47.466;19.024;2023-12-20T06:20:06;98.38;;;29.85;;
42430;SDS011;71905;47.466;19.024;2023-12-20T06:22:37;81.30;;;30.80;;
42430;SDS011;71905;47.466;19.024;2023-12-20T06:25:06;96.03;;;30.58;;
42430;SDS011;71905;47.466;19.024;2023-12-20T06:27:34;153.45;;;31.92;;
42430;SDS011;71905;47.466;19.024;2023-12-20T06:30:03;109.70;;;32.38;;
42430;SDS011;71905;47.466;19.024;2023-12-20T06:32:31;112.78;;;32.58;;
42430;SDS011;71905;47.466;19.024;2023-12-20T06:35:01;100.43;;;32.50;;
42430;SDS011;71905;47.466;19.024;2023-12-20T06:37:29;130.60;;;32.30;;
42430;SDS011;71905;47.466;19.024;2023-12-20T06:39:59;89.43;;;29.50;;
42430;SDS011;71905;47.466;19.024;2023-12-20T06:42:27;148.98;;;34.70;;
42430;SDS011;71905;47.466;19.024;2023-12-20T06:44:58;84.00;;;30.38;;
42430;SDS011;71905;47.466;19.024;2023-12-20T06:47:26;84.53;;;28.63;;
42430;SDS011;71905;47.466;19.024;2023-12-20T06:49:54;64.53;;;27.80;;
42430;SDS011;71905;47.466;19.024;2023-12-20T06:52:22;66.20;;;27.95;;
42430;SDS011;71905;47.466;19.024;2023-12-20T06:54:50;78.82;;;30.17;;
42430;SDS011;71905;47.466;19.024;2023-12-20T06:57:20;74.97;;;28.35;;
42430;SDS011;71905;47.466;19.024;2023-12-20T06:59:48;98.68;;;32.55;;
42430;SDS011;71905;47.466;19.024;2023-12-20T07:02:16;70.20;;;27.38;;
42430;SDS011;71905;47.466;19.024;2023-12-20T07:04:43;85.07;;;30.52;;
42430;SDS011;71905;47.466;19.024;2023-12-20T07:07:14;72.82;;;30.20;;
42430;SDS011;71905;47.466;19.024;2023-12-20T07:09:42;75.40;;;29.42;;
42430;SDS011;71905;47.466;19.024;2023-12-20T07:12:10;73.25;;;30.92;;
42430;SDS011;71905;47.466;19.024;2023-12-20T07:14:39;81.60;;;33.50;;
42430;SDS011;71905;47.466;19.024;2023-12-20T07:17:07;104.47;;;33.15;;
42430;SDS011;71905;47.466;19.024;2023-12-20T07:19:39;72.35;;;29.13;;
42430;SDS011;71905;47.466;19.024;2023-12-20T07:22:08;96.50;;;32.42;;
42430;SDS011;71905;47.466;19.024;2023-12-20T07:24:36;81.25;;;31.38;;
42430;SDS011;71905;47.466;19.024;2023-12-20T07:27:04;80.78;;;30.38;;
42430;SDS011;71905;47.466;19.024;2023-12-20T07:29:32;84.38;;;34.05;;
42430;SDS011;71905;47.466;19.024;2023-12-20T07:32:01;72.40;;;31.85;;
42430;SDS011;71905;47.466;19.024;2023-12-20T07:34:29;74.15;;;32.13;;
42430;SDS011;71905;47.466;19.024;2023-12-20T07:37:00;79.38;;;32.60;;
42430;SDS011;71905;47.466;19.024;2023-12-20T07:39:28;79.60;;;32.65;;
42430;SDS011;71905;47.466;19.024;2023-12-20T07:41:56;80.97;;;32.08;;
42430;SDS011;71905;47.466;19.024;2023-12-20T07:44:24;71.03;;;30.67;;
42430;SDS011;71905;47.466;19.024;2023-12-20T07:46:52;80.43;;;32.20;;
42430;SDS011;71905;47.466;19.024;2023-12-20T07:49:22;88.25;;;34.88;;
42430;SDS011;71905;47.466;19.024;2023-12-20T07:51:50;79.80;;;32.88;;
42430;SDS011;71905;47.466;19.024;2023-12-20T07:54:18;81.18;;;32.25;;
42430;SDS011;71905;47.466;19.024;2023-12-20T07:56:46;77.95;;;31.63;;
42430;SDS011;71905;47.466;19.024;2023-12-20T07:59:14;92.00;;;35.78;;
42430;SDS011;71905;47.466;19.024;2023-12-20T08:01:55;91.25;;;35.70;;
42430;SDS011;71905;47.466;19.024;2023-12-20T08:04:25;79.10;;;31.33;;
42430;SDS011;71905;47.466;19.024;2023-12-20T08:06:53;93.65;;;36.30;;
42430;SDS011;71905;47.466;19.024;2023-12-20T08:09:22;96.53;;;37.20;;
42430;SDS011;71905;47.466;19.024;2023-12-20T08:11:50;89.35;;;35.90;;
42430;SDS011;71905;47.466;19.024;2023-12-20T08:14:18;86.90;;;36.05;;
42430;SDS011;71905;47.466;19.024;2023-12-20T08:16:46;82.53;;;35.83;;
42430;SDS011;71905;47.466;19.024;2023-12-20T08:19:13;105.22;;;40.25;;
42430;SDS011;71905;47.466;19.024;2023-12-20T08:21:43;100.75;;;39.28;;
42430;SDS011;71905;47.466;19.024;2023-12-20T08:24:11;91.15;;;38.22;;
42430;SDS011;71905;47.466;19.024;2023-12-20T08:26:39;97.28;;;41.58;;
42430;SDS011;71905;47.466;19.024;2023-12-20T08:29:07;86.95;;;37.33;;
42430;SDS011;71905;47.466;19.024;2023-12-20T08:31:34;93.63;;;39.75;;
42430;SDS011;71905;47.466;19.024;2023-12-20T08:34:02;96.30;;;41.60;;
42430;SDS011;71905;47.466;19.024;2023-12-20T08:36:33;92.70;;;39.72;;
42430;SDS011;71905;47.466;19.024;2023-12-20T08:39:03;99.85;;;40.22;;
42430;SDS011;71905;47.466;19.024;2023-12-20T08:41:34;98.80;;;39.78;;
42430;SDS011;71905;47.466;19.024;2023-12-20T08:44:03;94.45;;;38.60;;
42430;SDS011;71905;47.466;19.024;2023-12-20T08:46:31;84.90;;;36.40;;
42430;SDS011;71905;47.466;19.024;2023-12-20T08:48:59;94.97;;;39.85;;
42430;SDS011;71905;47.466;19.024;2023-12-20T08:51:28;86.78;;;36.38;;
42430;SDS011;71905;47.466;19.024;2023-12-20T08:53:56;84.55;;;35.25;;
42430;SDS011;71905;47.466;19.024;2023-12-20T08:56:25;95.78;;;40.55;;
42430;SDS011;71905;47.466;19.024;2023-12-20T08:58:53;84.35;;;37.05;;
42430;SDS011;71905;47.466;19.024;2023-12-20T09:01:21;94.75;;;38.10;;
42430;SDS011;71905;47.466;19.024;2023-12-20T09:03:49;89.85;;;37.83;;
42430;SDS011;71905;47.466;19.024;2023-12-20T09:06:17;95.15;;;38.65;;
42430;SDS011;71905;47.466;19.024;2023-12-20T09:08:45;87.70;;;38.40;;
42430;SDS011;71905;47.466;19.024;2023-12-20T09:11:14;92.05;;;39.13;;
42430;SDS011;71905;47.466;19.024;2023-12-20T09:13:43;93.95;;;40.28;;
42430;SDS011;71905;47.466;19.024;2023-12-20T09:16:11;88.55;;;38.25;;
42430;SDS011;71905;47.466;19.024;2023-12-20T09:18:42;88.07;;;39.85;;
42430;SDS011;71905;47.466;19.024;2023-12-20T09:21:10;92.30;;;39.85;;
42430;SDS011;71905;47.466;19.024;2023-12-20T09:23:38;84.95;;;36.10;;
42430;SDS011;71905;47.466;19.024;2023-12-20T09:26:06;86.80;;;37.97;;
42430;SDS011;71905;47.466;19.024;2023-12-20T09:28:35;91.88;;;38.70;;
42430;SDS011;71905;47.466;19.024;2023-12-20T09:31:05;81.07;;;35.58;;
42430;SDS011;71905;47.466;19.024;2023-12-20T09:33:34;79.43;;;36.22;;
42430;SDS011;71905;47.466;19.024;2023-12-20T09:36:03;84.25;;;36.50;;
42430;SDS011;71905;47.466;19.024;2023-12-20T09:38:32;84.13;;;37.58;;
42430;SDS011;71905;47.466;19.024;2023-12-20T09:41:01;79.22;;;37.13;;
42430;SDS011;71905;47.466;19.024;2023-12-20T09:43:31;89.78;;;39.00;;
42430;SDS011;71905;47.466;19.024;2023-12-20T09:46:06;84.78;;;37.92;;
42430;SDS011;71905;47.466;19.024;2023-12-20T09:48:35;82.85;;;37.70;;
42430;SDS011;71905;47.466;19.024;2023-12-20T09:51:04;91.07;;;39.33;;
42430;SDS011;71905;47.466;19.024;2023-12-20T09:53:33;84.10;;;39.05;;
42430;SDS011;71905;47.466;19.024;2023-12-20T09:56:04;88.40;;;39.15;;
42430;SDS011;71905;47.466;19.024;2023-12-20T09:58:36;90.28;;;42.45;;
42430;SDS011;71905;47.466;19.024;2023-12-20T10:01:07;89.60;;;39.45;;
42430;SDS011;71905;47.466;19.024;2023-12-20T10:03:35;93.65;;;40.92;;
42430;SDS011;71905;47.466;19.024;2023-12-20T10:06:08;90.18;;;40.70;;
42430;SDS011;71905;47.466;19.024;2023-12-20T10:08:38;94.43;;;42.60;;
42430;SDS011;71905;47.466;19.024;2023-12-20T10:11:06;90.95;;;40.58;;
42430;SDS011;71905;47.466;19.024;2023-12-20T10:13:34;84.90;;;39.47;;
42430;SDS011;71905;47.466;19.024;2023-12-20T10:16:09;94.25;;;41.58;;
42430;SDS011;71905;47.466;19.024;2023-12-20T10:18:37;90.35;;;42.90;;
42430;SDS011;71905;47.466;19.024;2023-12-20T10:21:06;97.15;;;44.72;;
42430;SDS011;71905;47.466;19.024;2023-12-20T10:23:37;97.53;;;43.45;;
42430;SDS011;71905;47.466;19.024;2023-12-20T10:26:05;93.10;;;42.78;;
42430;SDS011;71905;47.466;19.024;2023-12-20T10:28:34;92.93;;;42.05;;
42430;SDS011;71905;47.466;19.024;2023-12-20T10:31:02;103.45;;;45.25;;
42430;SDS011;71905;47.466;19.024;2023-12-20T10:33:32;95.32;;;42.35;;
42430;SDS011;71905;47.466;19.024;2023-12-20T10:36:00;93.13;;;42.65;;
42430;SDS011;71905;47.466;19.024;2023-12-20T10:38:29;102.43;;;46.17;;
42430;SDS011;71905;47.466;19.024;2023-12-20T10:40:57;94.18;;;44.28;;
42430;SDS011;71905;47.466;19.024;2023-12-20T10:43:26;97.32;;;45.22;;
42430;SDS011;71905;47.466;19.024;2023-12-20T10:45:57;87.32;;;44.75;;
42430;SDS011;71905;47.466;19.024;2023-12-20T10:48:25;94.40;;;43.08;;
42430;SDS011;71905;47.466;19.024;2023-12-20T10:50:58;91.00;;;44.05;;
42430;SDS011;71905;47.466;19.024;2023-12-20T10:53:27;90.82;;;43.45;;
42430;SDS011;71905;47.466;19.024;2023-12-20T10:55:55;96.78;;;44.63;;
42430;SDS011;71905;47.466;19.024;2023-12-20T10:58:27;94.32;;;45.88;;
42430;SDS011;71905;47.466;19.024;2023-12-20T11:01:00;92.93;;;44.92;;
42430;SDS011;71905;47.466;19.024;2023-12-20T11:03:30;90.30;;;43.45;;
42430;SDS011;71905;47.466;19.024;2023-12-20T11:06:05;108.03;;;47.30;;
42430;SDS011;71905;47.466;19.024;2023-12-20T11:08:38;93.72;;;44.33;;
42430;SDS011;71905;47.466;19.024;2023-12-20T11:11:13;93.85;;;46.50;;
42430;SDS011;71905;47.466;19.024;2023-12-20T11:13:53;84.95;;;44.33;;
42430;SDS011;71905;47.466;19.024;2023-12-20T11:16:25;95.43;;;46.17;;
42430;SDS011;71905;47.466;19.024;2023-12-20T11:19:06;91.30;;;44.92;;
42430;SDS011;71905;47.466;19.024;2023-12-20T11:21:36;97.82;;;47.35;;
42430;SDS011;71905;47.466;19.024;2023-12-20T11:24:04;96.35;;;47.20;;
42430;SDS011;71905;47.466;19.024;2023-12-20T11:26:33;86.07;;;42.58;;
42430;SDS011;71905;47.466;19.024;2023-12-20T11:32:03;96.95;;;48.10;;
42430;SDS011;71905;47.466;19.024;2023-12-20T11:34:51;96.97;;;47.47;;
42430;SDS011;71905;47.466;19.024;2023-12-20T11:37:25;96.85;;;48.00;;
42430;SDS011;71905;47.466;19.024;2023-12-20T11:40:00;103.72;;;50.08;;
42430;SDS011;71905;47.466;19.024;2023-12-20T11:42:32;105.13;;;49.58;;
42430;SDS011;71905;47.466;19.024;2023-12-20T11:45:01;98.38;;;47.30;;
42430;SDS011;71905;47.466;19.024;2023-12-20T11:47:31;96.70;;;48.40;;
42430;SDS011;71905;47.466;19.024;2023-12-20T11:49:59;95.00;;;48.17;;
42430;SDS011;71905;47.466;19.024;2023-12-20T11:52:31;104.60;;;52.63;;
42430;SDS011;71905;47.466;19.024;2023-12-20T11:55:00;95.95;;;49.88;;
42430;SDS011;71905;47.466;19.024;2023-12-20T11:57:28;93.13;;;49.33;;
42430;SDS011;71905;47.466;19.024;2023-12-20T11:59:56;92.47;;;46.00;;
42430;SDS011;71905;47.466;19.024;2023-12-20T12:02:25;87.97;;;46.13;;
42430;SDS011;71905;47.466;19.024;2023-12-20T12:04:53;92.03;;;46.80;;
42430;SDS011;71905;47.466;19.024;2023-12-20T12:07:22;81.20;;;43.08;;
42430;SDS011;71905;47.466;19.024;2023-12-20T12:09:51;52.03;;;27.02;;
42430;SDS011;71905;47.466;19.024;2023-12-20T12:12:19;24.83;;;14.35;;
42430;SDS011;71905;47.466;19.024;2023-12-20T12:14:48;13.93;;;7.07;;
42430;SDS011;71905;47.466;19.024;2023-12-20T12:17:16;7.45;;;5.40;;
42430;SDS011;71905;47.466;19.024;2023-12-20T12:19:45;6.82;;;4.53;;
42430;SDS011;71905;47.466;19.024;2023-12-20T12:22:13;9.38;;;4.72;;
42430;SDS011;71905;47.466;19.024;2023-12-20T12:24:44;8.63;;;5.07;;
42430;SDS011;71905;47.466;19.024;2023-12-20T12:27:13;9.80;;;4.95;;
42430;SDS011;71905;47.466;19.024;2023-12-20T12:32:28;9.10;;;5.72;;
42430;SDS011;71905;47.466;19.024;2023-12-20T12:34:56;11.07;;;6.47;;
42430;SDS011;71905;47.466;19.024;2023-12-20T12:37:24;9.57;;;5.95;;
42430;SDS011;71905;47.466;19.024;2023-12-20T12:39:53;11.15;;;6.53;;
42430;SDS011;71905;47.466;19.024;2023-12-20T12:42:22;8.65;;;6.05;;
42430;SDS011;71905;47.466;19.024;2023-12-20T12:44:55;13.40;;;7.05;;
42430;SDS011;71905;47.466;19.024;2023-12-20T12:47:23;10.23;;;6.03;;
42430;SDS011;71905;47.466;19.024;2023-12-20T12:49:51;10.23;;;6.43;;
42430;SDS011;71905;47.466;19.024;2023-12-20T12:52:20;8.18;;;5.68;;
42430;SDS011;71905;47.466;19.024;2023-12-20T13:25:31;12.38;;;7.72;;
42430;SDS011;71905;47.466;19.024;2023-12-20T13:28:00;11.70;;;7.72;;
42430;SDS011;71905;47.466;19.024;2023-12-20T13:30:29;10.23;;;6.78;;
42430;SDS011;71905;47.466;19.024;2023-12-20T13:32:57;10.75;;;6.88;;
42430;SDS011;71905;47.466;19.024;2023-12-20T13:35:26;13.20;;;7.45;;
42430;SDS011;71905;47.466;19.024;2023-12-20T13:37:54;13.15;;;7.63;;
42430;SDS011;71905;47.466;19.024;2023-12-20T13:40:22;11.40;;;7.32;;
42430;SDS011;71905;47.466;19.024;2023-12-20T13:42:52;11.98;;;7.50;;
42430;SDS011;71905;47.466;19.024;2023-12-20T13:45:21;13.15;;;8.82;;
42430;SDS011;71905;47.466;19.024;2023-12-20T13:47:52;11.38;;;7.10;;
42430;SDS011;71905;47.466;19.024;2023-12-20T13:50:20;13.52;;;7.57;;
42430;SDS011;71905;47.466;19.024;2023-12-20T13:52:49;10.52;;;7.13;;
42430;SDS011;71905;47.466;19.024;2023-12-20T13:55:16;12.55;;;7.70;;
42430;SDS011;71905;47.466;19.024;2023-12-20T13:57:48;21.02;;;13.18;;
42430;SDS011;71905;47.466;19.024;2023-12-20T14:00:23;15.02;;;9.55;;
42430;SDS011;71905;47.466;19.024;2023-12-20T14:02:51;19.95;;;11.27;;
42430;SDS011;71905;47.466;19.024;2023-12-20T14:05:19;11.10;;;7.05;;
42430;SDS011;71905;47.466;19.024;2023-12-20T14:07:51;10.73;;;6.57;;
42430;SDS011;71905;47.466;19.024;2023-12-20T14:10:19;9.43;;;6.40;;
42430;SDS011;71905;47.466;19.024;2023-12-20T14:12:47;11.93;;;7.40;;
42430;SDS011;71905;47.466;19.024;2023-12-20T14:15:15;10.70;;;6.70;;
42430;SDS011;71905;47.466;19.024;2023-12-20T14:17:45;8.48;;;6.05;;
42430;SDS011;71905;47.466;19.024;2023-12-20T14:20:13;9.45;;;5.65;;
42430;SDS011;71905;47.466;19.024;2023-12-20T14:22:42;8.02;;;5.65;;
42430;SDS011;71905;47.466;19.024;2023-12-20T14:25:11;10.27;;;6.47;;
42430;SDS011;71905;47.466;19.024;2023-12-20T14:27:40;16.88;;;8.98;;
42430;SDS011;71905;47.466;19.024;2023-12-20T14:30:11;16.88;;;9.82;;
42430;SDS011;71905;47.466;19.024;2023-12-20T14:32:41;17.98;;;10.80;;
42430;SDS011;71905;47.466;19.024;2023-12-20T14:35:11;20.00;;;10.75;;
42430;SDS011;71905;47.466;19.024;2023-12-20T14:37:40;11.82;;;7.18;;
42430;SDS011;71905;47.466;19.024;2023-12-20T14:40:08;11.45;;;7.15;;
42430;SDS011;71905;47.466;19.024;2023-12-20T14:42:42;10.43;;;5.50;;
42430;SDS011;71905;47.466;19.024;2023-12-20T14:45:10;8.93;;;5.72;;
42430;SDS011;71905;47.466;19.024;2023-12-20T14:47:39;9.57;;;6.45;;
42430;SDS011;71905;47.466;19.024;2023-12-20T14:50:08;20.80;;;10.68;;
42430;SDS011;71905;47.466;19.024;2023-12-20T14:52:38;18.75;;;10.80;;
42430;SDS011;71905;47.466;19.024;2023-12-20T14:55:06;18.70;;;10.32;;
42430;SDS011;71905;47.466;19.024;2023-12-20T14:57:34;18.83;;;10.70;;